sensor_id;sensor_type;location;lat;lon;timestamp;P1;durP1;ratioP1;P2;durP2;ratioP2
14088;SDS011;7120;52.890;6.040;2023-12-28T00:01:08;5.43;;;3.47;;
14088;SDS011;7120;52.890;6.040;2023-12-28T00:03:33;7.17;;;3.53;;
14088;SDS011;7120;52.890;6.040;2023-12-28T00:05:59;5.27;;;3.67;;
14088;SDS011;7120;52.890;6.040;2023-12-28T00:08:24;5.30;;;3.90;;
14088;SDS011;7120;52.890;6.040;2023-12-28T00:10:49;4.70;;;3.83;;
14088;SDS011;7120;52.890;6.040;2023-12-28T00:13:15;3.97;;;3.57;;
14088;SDS011;7120;52.890;6.040;2023-12-28T00:15:41;5.10;;;3.67;;
14088;SDS011;7120;52.890;6.040;2023-12-28T00:18:06;6.23;;;3.53;;
14088;SDS011;7120;52.890;6.040;2023-12-28T00:20:31;6.00;;;3.60;;
14088;SDS011;7120;52.890;6.040;2023-12-28T00:22:57;4.03;;;3.60;;
14088;SDS011;7120;52.890;6.040;2023-12-28T00:25:23;5.70;;;3.47;;
14088;SDS011;7120;52.890;6.040;2023-12-28T00:27:48;6.67;;;3.53;;
14088;SDS011;7120;52.890;6.040;2023-12-28T00:30:14;6.07;;;3.73;;
14088;SDS011;7120;52.890;6.040;2023-12-28T00:32:39;5.23;;;3.37;;
14088;SDS011;7120;52.890;6.040;2023-12-28T00:35:08;5.50;;;3.57;;
14088;SDS011;7120;52.890;6.040;2023-12-28T00:37:33;4.87;;;3.40;;
14088;SDS011;7120;52.890;6.040;2023-12-28T00:39:59;7.13;;;3.73;;
14088;SDS011;7120;52.890;6.040;2023-12-28T00:42:24;7.83;;;3.70;;
14088;SDS011;7120;52.890;6.040;2023-12-28T00:44:49;6.60;;;3.57;;
14088;SDS011;7120;52.890;6.040;2023-12-28T00:47:15;8.43;;;4.40;;
14088;SDS011;7120;52.890;6.040;2023-12-28T00:49:40;6.30;;;4.30;;
14088;SDS011;7120;52.890;6.040;2023-12-28T00:52:05;5.77;;;3.80;;
14088;SDS011;7120;52.890;6.040;2023-12-28T00:54:31;11.10;;;3.90;;
14088;SDS011;7120;52.890;6.040;2023-12-28T00:56:56;8.77;;;4.57;;
14088;SDS011;7120;52.890;6.040;2023-12-28T00:59:21;8.23;;;4.20;;
14088;SDS011;7120;52.890;6.040;2023-12-28T01:01:47;9.37;;;4.60;;
14088;SDS011;7120;52.890;6.040;2023-12-28T01:04:12;11.87;;;4.63;;
14088;SDS011;7120;52.890;6.040;2023-12-28T01:06:37;6.97;;;4.03;;
14088;SDS011;7120;52.890;6.040;2023-12-28T01:09:03;10.57;;;4.17;;
14088;SDS011;7120;52.890;6.040;2023-12-28T01:11:28;9.53;;;4.37;;
14088;SDS011;7120;52.890;6.040;2023-12-28T01:13:53;10.90;;;4.37;;
14088;SDS011;7120;52.890;6.040;2023-12-28T01:16:19;9.27;;;4.20;;
14088;SDS011;7120;52.890;6.040;2023-12-28T01:18:44;9.53;;;4.00;;
14088;SDS011;7120;52.890;6.040;2023-12-28T01:21:09;10.20;;;4.23;;
14088;SDS011;7120;52.890;6.040;2023-12-28T01:23:35;9.93;;;4.30;;
14088;SDS011;7120;52.890;6.040;2023-12-28T01:26:00;10.63;;;4.20;;
14088;SDS011;7120;52.890;6.040;2023-12-28T01:28:26;12.20;;;4.73;;
14088;SDS011;7120;52.890;6.040;2023-12-28T01:30:51;6.53;;;3.93;;
14088;SDS011;7120;52.890;6.040;2023-12-28T01:33:17;5.77;;;3.67;;
14088;SDS011;7120;52.890;6.040;2023-12-28T01:35:42;12.47;;;4.87;;
14088;SDS011;7120;52.890;6.040;2023-12-28T01:38:07;8.30;;;4.10;;
14088;SDS011;7120;52.890;6.040;2023-12-28T01:40:33;11.07;;;4.87;;
14088;SDS011;7120;52.890;6.040;2023-12-28T01:42:58;11.67;;;4.20;;
14088;SDS011;7120;52.890;6.040;2023-12-28T01:45:24;9.27;;;4.63;;
14088;SDS011;7120;52.890;6.040;2023-12-28T01:47:49;9.73;;;4.20;;
14088;SDS011;7120;52.890;6.040;2023-12-28T01:50:17;8.47;;;3.77;;
14088;SDS011;7120;52.890;6.040;2023-12-28T01:52:43;9.03;;;4.00;;
14088;SDS011;7120;52.890;6.040;2023-12-28T01:55:09;11.27;;;4.13;;
14088;SDS011;7120;52.890;6.040;2023-12-28T01:57:34;11.17;;;4.37;;
14088;SDS011;7120;52.890;6.040;2023-12-28T02:00:00;13.03;;;4.03;;
14088;SDS011;7120;52.890;6.040;2023-12-28T02:02:28;8.93;;;4.07;;
14088;SDS011;7120;52.890;6.040;2023-12-28T02:04:55;8.90;;;3.90;;
14088;SDS011;7120;52.890;6.040;2023-12-28T02:07:21;7.40;;;3.90;;
14088;SDS011;7120;52.890;6.040;2023-12-28T02:09:46;9.67;;;4.30;;
14088;SDS011;7120;52.890;6.040;2023-12-28T02:12:12;9.90;;;4.70;;
14088;SDS011;7120;52.890;6.040;2023-12-28T02:14:37;9.43;;;4.30;;
14088;SDS011;7120;52.890;6.040;2023-12-28T02:19:55;11.53;;;3.80;;
14088;SDS011;7120;52.890;6.040;2023-12-28T02:22:26;11.60;;;4.57;;
14088;SDS011;7120;52.890;6.040;2023-12-28T02:27:24;12.17;;;3.90;;
14088;SDS011;7120;52.890;6.040;2023-12-28T02:29:50;8.17;;;3.83;;
14088;SDS011;7120;52.890;6.040;2023-12-28T02:32:15;9.70;;;4.43;;
14088;SDS011;7120;52.890;6.040;2023-12-28T02:34:47;11.80;;;4.30;;
14088;SDS011;7120;52.890;6.040;2023-12-28T02:37:16;11.53;;;4.67;;
14088;SDS011;7120;52.890;6.040;2023-12-28T02:39:42;9.23;;;3.23;;
14088;SDS011;7120;52.890;6.040;2023-12-28T02:42:12;6.07;;;3.10;;
14088;SDS011;7120;52.890;6.040;2023-12-28T02:44:37;9.30;;;3.43;;
14088;SDS011;7120;52.890;6.040;2023-12-28T02:47:03;11.80;;;3.67;;
14088;SDS011;7120;52.890;6.040;2023-12-28T02:49:28;7.70;;;3.63;;
14088;SDS011;7120;52.890;6.040;2023-12-28T02:51:53;8.37;;;3.87;;
14088;SDS011;7120;52.890;6.040;2023-12-28T02:54:19;11.37;;;3.10;;
14088;SDS011;7120;52.890;6.040;2023-12-28T02:56:44;6.87;;;3.17;;
14088;SDS011;7120;52.890;6.040;2023-12-28T02:59:09;8.33;;;3.30;;
14088;SDS011;7120;52.890;6.040;2023-12-28T03:01:35;7.10;;;3.53;;
14088;SDS011;7120;52.890;6.040;2023-12-28T03:04:00;15.07;;;3.47;;
14088;SDS011;7120;52.890;6.040;2023-12-28T03:06:25;8.67;;;3.60;;
14088;SDS011;7120;52.890;6.040;2023-12-28T03:08:51;10.83;;;3.40;;
14088;SDS011;7120;52.890;6.040;2023-12-28T03:11:19;6.70;;;3.10;;
14088;SDS011;7120;52.890;6.040;2023-12-28T03:13:45;5.70;;;3.00;;
14088;SDS011;7120;52.890;6.040;2023-12-28T03:16:12;10.10;;;3.60;;
14088;SDS011;7120;52.890;6.040;2023-12-28T03:18:38;9.27;;;3.27;;
14088;SDS011;7120;52.890;6.040;2023-12-28T03:21:03;6.50;;;2.80;;
14088;SDS011;7120;52.890;6.040;2023-12-28T03:23:29;8.07;;;3.07;;
14088;SDS011;7120;52.890;6.040;2023-12-28T03:25:54;8.03;;;3.30;;
14088;SDS011;7120;52.890;6.040;2023-12-28T03:28:20;13.60;;;3.50;;
14088;SDS011;7120;52.890;6.040;2023-12-28T03:30:46;7.10;;;3.40;;
14088;SDS011;7120;52.890;6.040;2023-12-28T03:33:12;8.93;;;3.53;;
14088;SDS011;7120;52.890;6.040;2023-12-28T03:35:37;5.57;;;2.30;;
14088;SDS011;7120;52.890;6.040;2023-12-28T03:38:02;6.60;;;3.03;;
14088;SDS011;7120;52.890;6.040;2023-12-28T03:40:28;7.57;;;2.77;;
14088;SDS011;7120;52.890;6.040;2023-12-28T03:42:53;10.77;;;3.03;;
14088;SDS011;7120;52.890;6.040;2023-12-28T03:45:18;8.43;;;3.93;;
14088;SDS011;7120;52.890;6.040;2023-12-28T03:47:44;5.13;;;2.77;;
14088;SDS011;7120;52.890;6.040;2023-12-28T03:50:10;7.07;;;3.10;;
14088;SDS011;7120;52.890;6.040;2023-12-28T03:52:35;7.00;;;2.50;;
14088;SDS011;7120;52.890;6.040;2023-12-28T03:55:01;6.67;;;2.73;;
14088;SDS011;7120;52.890;6.040;2023-12-28T03:57:26;8.87;;;3.43;;
14088;SDS011;7120;52.890;6.040;2023-12-28T03:59:51;12.27;;;2.80;;
14088;SDS011;7120;52.890;6.040;2023-12-28T04:02:18;9.53;;;3.43;;
14088;SDS011;7120;52.890;6.040;2023-12-28T04:04:44;11.50;;;2.93;;
14088;SDS011;7120;52.890;6.040;2023-12-28T04:07:09;9.03;;;3.13;;
14088;SDS011;7120;52.890;6.040;2023-12-28T04:09:35;8.13;;;2.80;;
14088;SDS011;7120;52.890;6.040;2023-12-28T04:12:00;7.03;;;2.70;;
14088;SDS011;7120;52.890;6.040;2023-12-28T04:14:26;9.40;;;2.93;;
14088;SDS011;7120;52.890;6.040;2023-12-28T04:16:51;10.47;;;3.63;;
14088;SDS011;7120;52.890;6.040;2023-12-28T04:19:16;10.83;;;3.37;;
14088;SDS011;7120;52.890;6.040;2023-12-28T04:21:42;6.27;;;3.07;;
14088;SDS011;7120;52.890;6.040;2023-12-28T04:24:09;13.20;;;3.40;;
14088;SDS011;7120;52.890;6.040;2023-12-28T04:26:34;7.87;;;3.33;;
14088;SDS011;7120;52.890;6.040;2023-12-28T04:28:59;8.73;;;3.07;;
14088;SDS011;7120;52.890;6.040;2023-12-28T04:31:25;11.37;;;2.83;;
14088;SDS011;7120;52.890;6.040;2023-12-28T04:33:50;8.07;;;2.77;;
14088;SDS011;7120;52.890;6.040;2023-12-28T04:36:16;8.27;;;3.10;;
14088;SDS011;7120;52.890;6.040;2023-12-28T04:38:44;9.00;;;2.90;;
14088;SDS011;7120;52.890;6.040;2023-12-28T04:41:09;8.27;;;3.17;;
14088;SDS011;7120;52.890;6.040;2023-12-28T04:43:35;11.50;;;3.27;;
14088;SDS011;7120;52.890;6.040;2023-12-28T04:46:04;9.07;;;3.37;;
14088;SDS011;7120;52.890;6.040;2023-12-28T04:48:30;14.13;;;2.87;;
14088;SDS011;7120;52.890;6.040;2023-12-28T04:50:56;11.27;;;2.57;;
14088;SDS011;7120;52.890;6.040;2023-12-28T04:53:21;10.80;;;2.67;;
14088;SDS011;7120;52.890;6.040;2023-12-28T04:55:47;9.47;;;2.80;;
14088;SDS011;7120;52.890;6.040;2023-12-28T04:58:12;8.77;;;2.80;;
14088;SDS011;7120;52.890;6.040;2023-12-28T05:00:37;12.03;;;2.73;;
14088;SDS011;7120;52.890;6.040;2023-12-28T05:03:03;8.20;;;2.83;;
14088;SDS011;7120;52.890;6.040;2023-12-28T05:05:28;10.57;;;3.00;;
14088;SDS011;7120;52.890;6.040;2023-12-28T05:07:54;9.00;;;2.50;;
14088;SDS011;7120;52.890;6.040;2023-12-28T05:10:19;10.30;;;3.37;;
14088;SDS011;7120;52.890;6.040;2023-12-28T05:12:44;10.00;;;3.07;;
14088;SDS011;7120;52.890;6.040;2023-12-28T05:15:10;11.63;;;2.63;;
14088;SDS011;7120;52.890;6.040;2023-12-28T05:17:35;8.47;;;2.63;;
14088;SDS011;7120;52.890;6.040;2023-12-28T05:20:00;14.93;;;3.73;;
14088;SDS011;7120;52.890;6.040;2023-12-28T05:22:26;9.40;;;3.00;;
14088;SDS011;7120;52.890;6.040;2023-12-28T05:24:54;10.07;;;3.03;;
14088;SDS011;7120;52.890;6.040;2023-12-28T05:27:19;12.07;;;2.90;;
14088;SDS011;7120;52.890;6.040;2023-12-28T05:29:44;8.20;;;2.60;;
14088;SDS011;7120;52.890;6.040;2023-12-28T05:32:10;8.63;;;2.40;;
14088;SDS011;7120;52.890;6.040;2023-12-28T05:34:35;10.40;;;2.50;;
14088;SDS011;7120;52.890;6.040;2023-12-28T05:37:00;8.90;;;2.23;;
14088;SDS011;7120;52.890;6.040;2023-12-28T05:39:26;8.10;;;3.07;;
14088;SDS011;7120;52.890;6.040;2023-12-28T05:41:51;10.10;;;3.10;;
14088;SDS011;7120;52.890;6.040;2023-12-28T05:44:16;7.60;;;2.67;;
14088;SDS011;7120;52.890;6.040;2023-12-28T05:46:42;12.17;;;3.00;;
14088;SDS011;7120;52.890;6.040;2023-12-28T05:49:07;10.70;;;2.90;;
14088;SDS011;7120;52.890;6.040;2023-12-28T05:51:39;13.27;;;3.10;;
14088;SDS011;7120;52.890;6.040;2023-12-28T05:54:05;8.97;;;2.80;;
14088;SDS011;7120;52.890;6.040;2023-12-28T05:56:31;8.03;;;2.67;;
14088;SDS011;7120;52.890;6.040;2023-12-28T05:58:56;10.27;;;3.00;;
14088;SDS011;7120;52.890;6.040;2023-12-28T06:01:22;11.23;;;2.83;;
14088;SDS011;7120;52.890;6.040;2023-12-28T06:03:47;14.67;;;3.30;;
14088;SDS011;7120;52.890;6.040;2023-12-28T06:06:15;9.40;;;2.77;;
14088;SDS011;7120;52.890;6.040;2023-12-28T06:08:40;11.00;;;3.60;;
14088;SDS011;7120;52.890;6.040;2023-12-28T06:11:05;9.57;;;3.00;;
14088;SDS011;7120;52.890;6.040;2023-12-28T06:13:31;15.97;;;3.13;;
14088;SDS011;7120;52.890;6.040;2023-12-28T06:15:56;11.00;;;2.80;;
14088;SDS011;7120;52.890;6.040;2023-12-28T06:18:21;11.40;;;2.93;;
14088;SDS011;7120;52.890;6.040;2023-12-28T06:20:47;9.27;;;2.97;;
14088;SDS011;7120;52.890;6.040;2023-12-28T06:23:12;10.87;;;3.00;;
14088;SDS011;7120;52.890;6.040;2023-12-28T06:25:37;10.87;;;3.07;;
14088;SDS011;7120;52.890;6.040;2023-12-28T06:28:03;10.83;;;2.90;;
14088;SDS011;7120;52.890;6.040;2023-12-28T06:30:28;11.73;;;2.83;;
14088;SDS011;7120;52.890;6.040;2023-12-28T06:32:54;9.77;;;2.97;;
14088;SDS011;7120;52.890;6.040;2023-12-28T06:35:19;8.13;;;3.00;;
14088;SDS011;7120;52.890;6.040;2023-12-28T06:37:45;15.03;;;2.80;;
14088;SDS011;7120;52.890;6.040;2023-12-28T06:40:10;10.93;;;3.00;;
14088;SDS011;7120;52.890;6.040;2023-12-28T06:42:36;12.10;;;2.80;;
14088;SDS011;7120;52.890;6.040;2023-12-28T06:45:02;13.00;;;2.97;;
14088;SDS011;7120;52.890;6.040;2023-12-28T06:47:27;10.10;;;3.23;;
14088;SDS011;7120;52.890;6.040;2023-12-28T06:49:52;11.47;;;3.07;;
14088;SDS011;7120;52.890;6.040;2023-12-28T06:52:18;10.90;;;3.10;;
14088;SDS011;7120;52.890;6.040;2023-12-28T06:54:43;12.87;;;2.73;;
14088;SDS011;7120;52.890;6.040;2023-12-28T06:57:08;13.03;;;3.73;;
14088;SDS011;7120;52.890;6.040;2023-12-28T06:59:34;11.30;;;3.03;;
14088;SDS011;7120;52.890;6.040;2023-12-28T07:01:59;15.17;;;3.27;;
14088;SDS011;7120;52.890;6.040;2023-12-28T07:04:24;13.20;;;3.37;;
14088;SDS011;7120;52.890;6.040;2023-12-28T07:06:54;13.53;;;3.77;;
14088;SDS011;7120;52.890;6.040;2023-12-28T07:09:19;16.63;;;3.17;;
14088;SDS011;7120;52.890;6.040;2023-12-28T07:11:44;14.03;;;3.40;;
14088;SDS011;7120;52.890;6.040;2023-12-28T07:14:10;12.73;;;3.67;;
14088;SDS011;7120;52.890;6.040;2023-12-28T07:16:35;15.80;;;4.17;;
14088;SDS011;7120;52.890;6.040;2023-12-28T07:19:00;18.07;;;3.97;;
14088;SDS011;7120;52.890;6.040;2023-12-28T07:21:26;15.93;;;3.50;;
14088;SDS011;7120;52.890;6.040;2023-12-28T07:23:51;12.03;;;3.43;;
14088;SDS011;7120;52.890;6.040;2023-12-28T07:26:16;17.53;;;3.77;;
14088;SDS011;7120;52.890;6.040;2023-12-28T07:28:42;18.43;;;4.43;;
14088;SDS011;7120;52.890;6.040;2023-12-28T07:31:09;18.10;;;3.97;;
14088;SDS011;7120;52.890;6.040;2023-12-28T07:33:35;19.80;;;4.27;;
14088;SDS011;7120;52.890;6.040;2023-12-28T07:36:00;16.43;;;4.07;;
14088;SDS011;7120;52.890;6.040;2023-12-28T07:38:27;19.43;;;3.93;;
14088;SDS011;7120;52.890;6.040;2023-12-28T07:40:53;17.47;;;3.73;;
14088;SDS011;7120;52.890;6.040;2023-12-28T07:43:18;17.40;;;4.37;;
14088;SDS011;7120;52.890;6.040;2023-12-28T07:45:43;20.20;;;4.30;;
14088;SDS011;7120;52.890;6.040;2023-12-28T07:48:09;17.70;;;3.63;;
14088;SDS011;7120;52.890;6.040;2023-12-28T07:50:34;18.17;;;3.90;;
14088;SDS011;7120;52.890;6.040;2023-12-28T07:53:00;20.17;;;4.27;;
14088;SDS011;7120;52.890;6.040;2023-12-28T07:55:25;19.70;;;4.00;;
14088;SDS011;7120;52.890;6.040;2023-12-28T07:57:51;19.50;;;4.17;;
14088;SDS011;7120;52.890;6.040;2023-12-28T08:00:17;15.77;;;4.17;;
14088;SDS011;7120;52.890;6.040;2023-12-28T08:02:42;21.40;;;4.07;;
14088;SDS011;7120;52.890;6.040;2023-12-28T08:05:08;15.73;;;3.63;;
14088;SDS011;7120;52.890;6.040;2023-12-28T08:07:34;19.47;;;4.43;;
14088;SDS011;7120;52.890;6.040;2023-12-28T08:09:59;20.10;;;3.67;;
14088;SDS011;7120;52.890;6.040;2023-12-28T08:12:25;18.77;;;4.13;;
14088;SDS011;7120;52.890;6.040;2023-12-28T08:14:52;23.37;;;4.43;;
14088;SDS011;7120;52.890;6.040;2023-12-28T08:17:19;17.93;;;4.33;;
14088;SDS011;7120;52.890;6.040;2023-12-28T08:19:44;18.70;;;4.33;;
14088;SDS011;7120;52.890;6.040;2023-12-28T08:22:10;21.97;;;4.50;;
14088;SDS011;7120;52.890;6.040;2023-12-28T08:24:35;21.33;;;4.60;;
14088;SDS011;7120;52.890;6.040;2023-12-28T08:27:01;20.63;;;4.80;;
14088;SDS011;7120;52.890;6.040;2023-12-28T08:29:27;16.43;;;3.80;;
14088;SDS011;7120;52.890;6.040;2023-12-28T08:31:53;15.70;;;4.50;;
14088;SDS011;7120;52.890;6.040;2023-12-28T08:34:18;24.80;;;4.70;;
14088;SDS011;7120;52.890;6.040;2023-12-28T08:36:44;22.00;;;4.83;;
14088;SDS011;7120;52.890;6.040;2023-12-28T08:39:11;20.17;;;4.03;;
14088;SDS011;7120;52.890;6.040;2023-12-28T08:41:37;27.10;;;7.20;;
14088;SDS011;7120;52.890;6.040;2023-12-28T08:44:02;20.07;;;7.13;;
14088;SDS011;7120;52.890;6.040;2023-12-28T08:46:27;21.77;;;10.80;;
14088;SDS011;7120;52.890;6.040;2023-12-28T08:48:54;21.37;;;6.37;;
14088;SDS011;7120;52.890;6.040;2023-12-28T08:51:19;18.80;;;8.47;;
14088;SDS011;7120;52.890;6.040;2023-12-28T08:53:45;20.30;;;4.97;;
14088;SDS011;7120;52.890;6.040;2023-12-28T08:56:17;23.60;;;5.60;;
14088;SDS011;7120;52.890;6.040;2023-12-28T08:58:44;17.80;;;4.67;;
14088;SDS011;7120;52.890;6.040;2023-12-28T09:01:18;14.97;;;4.03;;
14088;SDS011;7120;52.890;6.040;2023-12-28T09:03:47;22.27;;;6.13;;
14088;SDS011;7120;52.890;6.040;2023-12-28T09:06:16;22.57;;;5.60;;
14088;SDS011;7120;52.890;6.040;2023-12-28T09:08:43;18.17;;;4.57;;
14088;SDS011;7120;52.890;6.040;2023-12-28T09:11:09;17.10;;;4.43;;
14088;SDS011;7120;52.890;6.040;2023-12-28T09:13:38;18.73;;;4.20;;
14088;SDS011;7120;52.890;6.040;2023-12-28T09:16:05;18.50;;;5.43;;
14088;SDS011;7120;52.890;6.040;2023-12-28T09:18:31;19.57;;;6.13;;
14088;SDS011;7120;52.890;6.040;2023-12-28T09:20:56;20.87;;;4.90;;
14088;SDS011;7120;52.890;6.040;2023-12-28T09:23:21;19.40;;;5.27;;
14088;SDS011;7120;52.890;6.040;2023-12-28T09:25:47;20.03;;;4.93;;
14088;SDS011;7120;52.890;6.040;2023-12-28T09:28:12;24.30;;;5.40;;
14088;SDS011;7120;52.890;6.040;2023-12-28T09:30:38;21.37;;;4.87;;
14088;SDS011;7120;52.890;6.040;2023-12-28T09:33:03;19.37;;;5.30;;
14088;SDS011;7120;52.890;6.040;2023-12-28T09:35:29;23.33;;;4.60;;
14088;SDS011;7120;52.890;6.040;2023-12-28T09:37:54;18.93;;;4.53;;
14088;SDS011;7120;52.890;6.040;2023-12-28T09:40:21;20.20;;;4.57;;
14088;SDS011;7120;52.890;6.040;2023-12-28T09:42:53;20.20;;;4.27;;
14088;SDS011;7120;52.890;6.040;2023-12-28T09:45:38;17.57;;;4.20;;
14088;SDS011;7120;52.890;6.040;2023-12-28T09:48:03;21.57;;;5.70;;
14088;SDS011;7120;52.890;6.040;2023-12-28T09:50:29;19.17;;;5.17;;
14088;SDS011;7120;52.890;6.040;2023-12-28T09:52:55;19.87;;;4.73;;
14088;SDS011;7120;52.890;6.040;2023-12-28T09:55:20;19.03;;;5.33;;
14088;SDS011;7120;52.890;6.040;2023-12-28T09:57:46;18.83;;;5.70;;
14088;SDS011;7120;52.890;6.040;2023-12-28T10:00:11;21.73;;;4.93;;
14088;SDS011;7120;52.890;6.040;2023-12-28T10:02:37;17.13;;;4.47;;
14088;SDS011;7120;52.890;6.040;2023-12-28T10:05:06;15.57;;;3.50;;
14088;SDS011;7120;52.890;6.040;2023-12-28T10:07:32;21.60;;;4.87;;
14088;SDS011;7120;52.890;6.040;2023-12-28T10:09:57;15.93;;;4.37;;
14088;SDS011;7120;52.890;6.040;2023-12-28T10:12:22;19.07;;;5.83;;
14088;SDS011;7120;52.890;6.040;2023-12-28T10:14:50;17.90;;;7.37;;
14088;SDS011;7120;52.890;6.040;2023-12-28T10:17:15;20.90;;;4.90;;
14088;SDS011;7120;52.890;6.040;2023-12-28T10:19:41;16.70;;;4.60;;
14088;SDS011;7120;52.890;6.040;2023-12-28T10:22:06;16.93;;;4.70;;
14088;SDS011;7120;52.890;6.040;2023-12-28T10:24:32;19.67;;;5.23;;
14088;SDS011;7120;52.890;6.040;2023-12-28T10:26:57;18.57;;;5.00;;
14088;SDS011;7120;52.890;6.040;2023-12-28T10:29:25;19.13;;;5.17;;
14088;SDS011;7120;52.890;6.040;2023-12-28T10:31:51;13.07;;;3.83;;
14088;SDS011;7120;52.890;6.040;2023-12-28T10:34:16;15.93;;;4.70;;
14088;SDS011;7120;52.890;6.040;2023-12-28T10:36:43;14.97;;;4.67;;
14088;SDS011;7120;52.890;6.040;2023-12-28T10:39:10;17.70;;;4.90;;
14088;SDS011;7120;52.890;6.040;2023-12-28T10:41:38;14.33;;;4.13;;
14088;SDS011;7120;52.890;6.040;2023-12-28T10:44:06;21.03;;;4.97;;
14088;SDS011;7120;52.890;6.040;2023-12-28T10:46:34;13.50;;;4.33;;
14088;SDS011;7120;52.890;6.040;2023-12-28T10:49:15;19.90;;;5.13;;
14088;SDS011;7120;52.890;6.040;2023-12-28T10:51:42;19.50;;;4.50;;
14088;SDS011;7120;52.890;6.040;2023-12-28T10:54:28;19.77;;;4.80;;
14088;SDS011;7120;52.890;6.040;2023-12-28T10:57:28;20.93;;;5.17;;
14088;SDS011;7120;52.890;6.040;2023-12-28T11:00:00;15.77;;;3.87;;
14088;SDS011;7120;52.890;6.040;2023-12-28T11:02:37;18.93;;;4.37;;
14088;SDS011;7120;52.890;6.040;2023-12-28T11:05:05;21.20;;;4.87;;
14088;SDS011;7120;52.890;6.040;2023-12-28T11:07:32;19.37;;;5.30;;
14088;SDS011;7120;52.890;6.040;2023-12-28T11:10:00;19.90;;;4.97;;
14088;SDS011;7120;52.890;6.040;2023-12-28T11:12:29;13.33;;;4.17;;
14088;SDS011;7120;52.890;6.040;2023-12-28T11:14:56;20.43;;;4.37;;
14088;SDS011;7120;52.890;6.040;2023-12-28T11:17:22;14.60;;;4.30;;
14088;SDS011;7120;52.890;6.040;2023-12-28T11:19:49;19.13;;;5.43;;
14088;SDS011;7120;52.890;6.040;2023-12-28T11:22:18;22.20;;;4.83;;
14088;SDS011;7120;52.890;6.040;2023-12-28T11:24:44;16.23;;;4.17;;
14088;SDS011;7120;52.890;6.040;2023-12-28T11:27:10;70.70;;;50.63;;
14088;SDS011;7120;52.890;6.040;2023-12-28T11:29:36;18.60;;;4.70;;
14088;SDS011;7120;52.890;6.040;2023-12-28T11:32:02;19.73;;;4.93;;
14088;SDS011;7120;52.890;6.040;2023-12-28T11:34:27;16.17;;;4.23;;
14088;SDS011;7120;52.890;6.040;2023-12-28T11:36:55;18.57;;;4.83;;
14088;SDS011;7120;52.890;6.040;2023-12-28T11:39:31;16.20;;;4.60;;
14088;SDS011;7120;52.890;6.040;2023-12-28T11:42:02;23.83;;;5.63;;
14088;SDS011;7120;52.890;6.040;2023-12-28T11:44:36;21.30;;;4.70;;
14088;SDS011;7120;52.890;6.040;2023-12-28T11:47:10;15.27;;;4.10;;
14088;SDS011;7120;52.890;6.040;2023-12-28T11:49:40;21.63;;;4.50;;
14088;SDS011;7120;52.890;6.040;2023-12-28T11:52:06;22.23;;;5.50;;
14088;SDS011;7120;52.890;6.040;2023-12-28T11:54:32;23.63;;;4.87;;
14088;SDS011;7120;52.890;6.040;2023-12-28T11:56:58;16.97;;;4.40;;
14088;SDS011;7120;52.890;6.040;2023-12-28T11:59:23;23.80;;;5.40;;
14088;SDS011;7120;52.890;6.040;2023-12-28T12:01:49;17.97;;;5.40;;
14088;SDS011;7120;52.890;6.040;2023-12-28T12:04:18;21.07;;;4.87;;
14088;SDS011;7120;52.890;6.040;2023-12-28T12:06:45;19.73;;;4.50;;
14088;SDS011;7120;52.890;6.040;2023-12-28T12:09:11;19.40;;;5.33;;
14088;SDS011;7120;52.890;6.040;2023-12-28T12:11:37;16.03;;;4.67;;
14088;SDS011;7120;52.890;6.040;2023-12-28T12:14:03;21.10;;;5.03;;
14088;SDS011;7120;52.890;6.040;2023-12-28T12:16:34;24.90;;;5.83;;
14088;SDS011;7120;52.890;6.040;2023-12-28T12:19:00;19.37;;;5.30;;
14088;SDS011;7120;52.890;6.040;2023-12-28T12:21:25;19.47;;;5.37;;
14088;SDS011;7120;52.890;6.040;2023-12-28T12:23:50;18.63;;;5.20;;
14088;SDS011;7120;52.890;6.040;2023-12-28T12:26:17;20.33;;;5.77;;
14088;SDS011;7120;52.890;6.040;2023-12-28T12:28:43;20.80;;;4.87;;
14088;SDS011;7120;52.890;6.040;2023-12-28T12:31:09;18.10;;;4.90;;
14088;SDS011;7120;52.890;6.040;2023-12-28T12:33:36;21.97;;;6.00;;
14088;SDS011;7120;52.890;6.040;2023-12-28T12:36:02;22.37;;;5.57;;
14088;SDS011;7120;52.890;6.040;2023-12-28T12:38:30;14.43;;;5.20;;
14088;SDS011;7120;52.890;6.040;2023-12-28T12:40:57;25.20;;;5.20;;
14088;SDS011;7120;52.890;6.040;2023-12-28T12:43:23;22.20;;;6.03;;
14088;SDS011;7120;52.890;6.040;2023-12-28T12:45:48;22.30;;;6.00;;
14088;SDS011;7120;52.890;6.040;2023-12-28T12:48:14;20.37;;;5.17;;
14088;SDS011;7120;52.890;6.040;2023-12-28T12:50:39;19.87;;;5.33;;
14088;SDS011;7120;52.890;6.040;2023-12-28T12:53:05;18.77;;;5.23;;
14088;SDS011;7120;52.890;6.040;2023-12-28T12:55:30;24.37;;;8.40;;
14088;SDS011;7120;52.890;6.040;2023-12-28T12:57:56;20.17;;;5.53;;
14088;SDS011;7120;52.890;6.040;2023-12-28T13:00:23;17.60;;;6.07;;
14088;SDS011;7120;52.890;6.040;2023-12-28T13:02:52;18.37;;;5.80;;
14088;SDS011;7120;52.890;6.040;2023-12-28T13:05:21;20.83;;;6.10;;
14088;SDS011;7120;52.890;6.040;2023-12-28T13:07:48;22.27;;;5.43;;
14088;SDS011;7120;52.890;6.040;2023-12-28T13:10:14;21.43;;;5.17;;
14088;SDS011;7120;52.890;6.040;2023-12-28T13:12:39;18.00;;;4.53;;
14088;SDS011;7120;52.890;6.040;2023-12-28T13:15:05;23.00;;;5.00;;
14088;SDS011;7120;52.890;6.040;2023-12-28T13:17:31;14.87;;;4.63;;
14088;SDS011;7120;52.890;6.040;2023-12-28T13:19:56;18.47;;;4.57;;
14088;SDS011;7120;52.890;6.040;2023-12-28T13:22:22;16.27;;;4.97;;
14088;SDS011;7120;52.890;6.040;2023-12-28T13:24:47;19.57;;;5.27;;
14088;SDS011;7120;52.890;6.040;2023-12-28T13:27:13;14.97;;;4.53;;
14088;SDS011;7120;52.890;6.040;2023-12-28T13:29:39;15.80;;;4.37;;
14088;SDS011;7120;52.890;6.040;2023-12-28T13:32:05;18.23;;;5.27;;
14088;SDS011;7120;52.890;6.040;2023-12-28T13:34:30;22.73;;;5.57;;
14088;SDS011;7120;52.890;6.040;2023-12-28T13:36:56;22.13;;;5.40;;
14088;SDS011;7120;52.890;6.040;2023-12-28T13:39:21;17.53;;;5.47;;
14088;SDS011;7120;52.890;6.040;2023-12-28T13:41:46;20.30;;;5.83;;
14088;SDS011;7120;52.890;6.040;2023-12-28T13:44:12;19.80;;;5.70;;
14088;SDS011;7120;52.890;6.040;2023-12-28T13:46:37;18.43;;;5.30;;
14088;SDS011;7120;52.890;6.040;2023-12-28T13:49:03;21.30;;;4.80;;
14088;SDS011;7120;52.890;6.040;2023-12-28T13:51:29;19.07;;;4.40;;
14088;SDS011;7120;52.890;6.040;2023-12-28T13:53:55;16.80;;;4.37;;
14088;SDS011;7120;52.890;6.040;2023-12-28T13:56:21;20.07;;;4.73;;
14088;SDS011;7120;52.890;6.040;2023-12-28T13:58:46;17.10;;;4.70;;
14088;SDS011;7120;52.890;6.040;2023-12-28T14:01:11;20.77;;;4.83;;
14088;SDS011;7120;52.890;6.040;2023-12-28T14:03:38;18.93;;;4.63;;
14088;SDS011;7120;52.890;6.040;2023-12-28T14:06:03;22.83;;;5.57;;
14088;SDS011;7120;52.890;6.040;2023-12-28T14:08:29;21.17;;;5.67;;
14088;SDS011;7120;52.890;6.040;2023-12-28T14:10:54;20.13;;;5.30;;
14088;SDS011;7120;52.890;6.040;2023-12-28T14:13:20;19.17;;;4.90;;
14088;SDS011;7120;52.890;6.040;2023-12-28T14:15:45;17.63;;;5.03;;
14088;SDS011;7120;52.890;6.040;2023-12-28T14:18:11;21.50;;;5.37;;
14088;SDS011;7120;52.890;6.040;2023-12-28T14:20:36;19.07;;;4.30;;
14088;SDS011;7120;52.890;6.040;2023-12-28T14:23:02;22.53;;;5.70;;
14088;SDS011;7120;52.890;6.040;2023-12-28T14:25:28;24.10;;;6.10;;
14088;SDS011;7120;52.890;6.040;2023-12-28T14:27:54;25.27;;;5.87;;
14088;SDS011;7120;52.890;6.040;2023-12-28T14:30:19;20.40;;;6.37;;
14088;SDS011;7120;52.890;6.040;2023-12-28T14:32:45;23.13;;;6.33;;
14088;SDS011;7120;52.890;6.040;2023-12-28T14:35:11;20.37;;;6.40;;
14088;SDS011;7120;52.890;6.040;2023-12-28T14:37:37;26.53;;;7.40;;
14088;SDS011;7120;52.890;6.040;2023-12-28T14:40:02;21.73;;;7.07;;
14088;SDS011;7120;52.890;6.040;2023-12-28T14:42:31;30.30;;;8.20;;
14088;SDS011;7120;52.890;6.040;2023-12-28T14:45:00;56.67;;;30.90;;
14088;SDS011;7120;52.890;6.040;2023-12-28T14:47:26;22.80;;;6.70;;
14088;SDS011;7120;52.890;6.040;2023-12-28T14:49:52;27.63;;;7.47;;